Time;durP1;ratioP1;P1;durP2;ratioP2;P2;SDS_P1;SDS_P2;PMS_P1;PMS_P2;Temp;Humidity;BMP_temperature;BMP_pressure;BME280_temperature;BME280_humidity;BME280_pressure;Samples;Min_cycle;Max_cycle;Signal;HPM_P1;HPM_P2
2023/06/13 00:01:56;;;;;;;8.73;5.80;;;;;;;25.08;47.86;99798.19;5031572;28;20469;-72
2023/06/13 00:04:23;;;;;;;7.10;5.70;;;;;;;25.08;47.66;99794.50;5028666;28;21189;-72
2023/06/13 00:06:56;;;;;;;7.23;5.37;;;;;;;25.07;47.75;99790.78;5045761;28;20545;-72
2023/06/13 00:09:22;;;;;;;6.90;4.70;;;;;;;25.07;48.13;99798.63;5032298;28;21048;-72
2023/06/13 00:11:51;;;;;;;6.23;5.57;;;;;;;25.06;47.88;99800.72;5038541;28;20469;-72
2023/06/13 00:14:20;;;;;;;6.63;5.20;;;;;;;25.06;47.97;99792.03;5035340;28;20461;-72
2023/06/13 00:16:48;;;;;;;6.67;5.30;;;;;;;25.06;47.87;99794.09;5068630;28;20497;-72
2023/06/13 00:19:14;;;;;;;7.60;5.73;;;;;;;25.06;47.92;99792.03;5052174;28;20932;-72
2023/06/13 00:21:41;;;;;;;6.47;5.20;;;;;;;25.05;48.20;99784.63;5051067;28;20448;-72
2023/06/13 00:24:06;;;;;;;7.90;5.43;;;;;;;25.06;48.18;99792.03;5052015;28;20957;-72
2023/06/13 00:26:32;;;;;;;8.47;5.93;;;;;;;25.06;48.38;99786.28;5068010;28;20429;-72
2023/06/13 00:28:57;;;;;;;9.37;6.20;;;;;;;25.06;47.79;99791.22;5048105;28;20298;-72
2023/06/13 00:31:28;;;;;;;6.30;5.00;;;;;;;25.05;48.11;99787.53;5031968;28;20179;-72
2023/06/13 00:33:57;;;;;;;6.80;5.00;;;;;;;25.05;47.91;99783.81;5048479;28;20945;-72
2023/06/13 00:36:27;;;;;;;6.97;5.37;;;;;;;25.05;48.06;99787.53;5039492;28;20451;-72
2023/06/13 00:38:53;;;;;;;6.97;5.00;;;;;;;25.05;48.15;99786.69;5051044;28;20417;-72
2023/06/13 00:41:19;;;;;;;6.13;5.10;;;;;;;25.05;48.51;99778.88;5033889;28;21051;-72
2023/06/13 00:43:44;;;;;;;6.77;4.70;;;;;;;25.05;48.12;99780.94;5047935;28;20422;-72
2023/06/13 00:46:13;;;;;;;7.60;5.50;;;;;;;25.04;48.35;99777.22;5015125;28;20187;-72
2023/06/13 00:48:38;;;;;;;7.23;5.20;;;;;;;25.04;48.64;99765.66;5032036;28;20236;-72
2023/06/13 00:51:04;;;;;;;7.40;4.47;;;;;;;25.05;48.54;99772.25;5036266;28;20445;-72
2023/06/13 00:53:31;;;;;;;5.83;4.83;;;;;;;25.04;48.51;99771.44;5034598;28;20646;-72
2023/06/13 00:55:56;;;;;;;5.23;4.53;;;;;;;25.03;48.48;99775.56;5068827;28;20201;-72
2023/06/13 00:58:22;;;;;;;6.33;4.87;;;;;;;25.03;48.26;99775.56;5049990;28;20897;-72
2023/06/13 01:00:48;;;;;;;6.10;5.27;;;;;;;25.02;48.46;99768.16;5047213;28;20175;-71
2023/06/13 01:03:17;;;;;;;7.10;5.50;;;;;;;25.02;48.59;99765.28;5047269;28;20444;-71
2023/06/13 01:05:43;;;;;;;8.27;5.50;;;;;;;25.02;48.50;99768.16;5035495;28;20183;-71
2023/06/13 01:08:10;;;;;;;6.60;5.10;;;;;;;25.01;48.35;99763.66;5039177;28;20444;-72
2023/06/13 01:10:36;;;;;;;6.63;5.17;;;;;;;25.01;48.19;99763.66;5060980;28;20210;-71
2023/06/13 01:13:34;;;;;;;6.23;5.50;;;;;;;25.01;48.68;99760.78;5046950;28;20963;-71
2023/06/13 01:16:15;;;;;;;8.07;5.10;;;;;;;25.01;48.59;99762.81;5025757;28;20311;-71
2023/06/13 01:18:42;;;;;;;7.70;5.30;;;;;;;25.00;48.34;99764.91;5035481;28;20437;-72
2023/06/13 01:21:08;;;;;;;6.23;4.63;;;;;;;25.00;48.61;99767.81;5050969;28;20413;-71
2023/06/13 01:23:49;;;;;;;6.17;4.83;;;;;;;25.00;48.62;99756.25;5051114;28;20456;-71
2023/06/13 01:26:51;;;;;;;6.93;5.20;;;;;;;25.01;48.19;99762.81;5069078;28;20413;-72
2023/06/13 01:29:17;;;;;;;7.47;5.57;;;;;;;25.00;48.54;99769.88;5069342;28;20503;-72
2023/06/13 01:31:42;;;;;;;6.80;4.80;;;;;;;25.00;48.26;99761.19;5053806;28;21153;-71
2023/06/13 01:34:08;;;;;;;7.50;5.97;;;;;;;24.99;48.41;99754.59;5036407;28;20685;-71
2023/06/13 01:36:34;;;;;;;5.97;3.97;;;;;;;25.00;48.54;99755.44;5053813;28;20178;-71
2023/06/13 01:38:59;;;;;;;7.40;5.50;;;;;;;24.99;48.57;99757.47;5053006;28;20240;-71
2023/06/13 01:41:25;;;;;;;6.87;4.90;;;;;;;24.98;48.29;99752.97;5053638;28;20634;-71
2023/06/13 01:43:50;;;;;;;6.47;5.20;;;;;;;24.98;48.40;99744.31;5043268;28;20194;-71
2023/06/13 01:46:27;;;;;;;6.53;4.83;;;;;;;24.97;48.38;99754.22;5068366;28;20172;-71
2023/06/13 01:49:11;;;;;;;7.83;5.00;;;;;;;24.97;48.46;99748.44;5055577;28;20167;-70
2023/06/13 01:52:02;;;;;;;6.43;4.40;;;;;;;24.96;48.45;99752.59;5071365;28;20519;-71
2023/06/13 01:54:27;;;;;;;5.50;4.57;;;;;;;24.96;48.54;99752.59;5069392;28;20472;-71
2023/06/13 01:56:55;;;;;;;7.80;5.73;;;;;;;24.95;48.48;99762.53;5054241;28;20418;-71
2023/06/13 01:59:24;;;;;;;6.40;4.97;;;;;;;24.95;48.24;99753.84;5054173;28;20549;-73
2023/06/13 02:01:50;;;;;;;6.10;4.90;;;;;;;24.96;48.32;99754.66;5051069;28;20446;-71
2023/06/13 02:04:15;;;;;;;7.23;5.20;;;;;;;24.95;48.54;99750.97;5034225;28;20426;-71
2023/06/13 02:06:40;;;;;;;6.30;4.80;;;;;;;24.95;48.50;99745.19;5044750;28;20179;-73
2023/06/13 02:09:06;;;;;;;5.50;4.63;;;;;;;24.94;48.38;99742.75;5070954;28;20575;-71
2023/06/13 02:11:32;;;;;;;6.13;4.47;;;;;;;24.95;48.76;99747.25;5055384;28;20644;-71
2023/06/13 02:14:00;;;;;;;7.17;4.80;;;;;;;24.94;48.19;99746.44;5055234;28;20234;-71
2023/06/13 02:16:29;;;;;;;6.60;4.97;;;;;;;24.94;48.47;99751.41;5037620;28;20180;-72
2023/06/13 02:18:55;;;;;;;5.80;4.70;;;;;;;24.93;48.40;99744.00;5056238;28;20916;-71
2023/06/13 02:21:21;;;;;;;6.30;4.43;;;;;;;24.93;48.59;99744.78;5053194;28;20414;-72
2023/06/13 02:23:47;;;;;;;6.27;4.53;;;;;;;24.93;47.83;99741.91;5069630;28;20418;-71
2023/06/13 02:26:13;;;;;;;6.97;5.10;;;;;;;24.93;48.43;99746.88;5069511;28;20974;-71
2023/06/13 02:28:38;;;;;;;6.70;5.27;;;;;;;24.92;48.16;99746.06;5067196;28;20534;-71
2023/06/13 02:31:04;;;;;;;5.33;4.77;;;;;;;24.92;48.86;99746.06;5042048;28;20426;-71
2023/06/13 02:33:32;;;;;;;7.80;5.20;;;;;;;24.92;48.26;99746.06;5025552;28;20683;-71
2023/06/13 02:35:58;;;;;;;10.60;5.23;;;;;;;24.90;48.34;99741.97;5056744;28;20634;-71
2023/06/13 02:38:24;;;;;;;6.43;4.77;;;;;;;24.92;48.10;99742.34;5068553;28;20908;-72
2023/06/13 02:40:49;;;;;;;5.70;4.63;;;;;;;24.90;48.35;99739.91;5054527;28;20873;-72
2023/06/13 02:43:15;;;;;;;6.10;4.20;;;;;;;24.91;48.27;99749.38;5049155;28;20448;-72
2023/06/13 02:45:40;;;;;;;6.13;4.87;;;;;;;24.89;48.09;99741.16;5015932;28;20651;-71
2023/06/13 02:48:06;;;;;;;6.50;4.10;;;;;;;24.90;48.12;99741.97;5058281;28;20182;-71
2023/06/13 02:50:31;;;;;;;5.30;4.40;;;;;;;24.90;48.20;99741.97;5053527;28;20236;-71
2023/06/13 02:52:56;;;;;;;6.53;4.87;;;;;;;24.89;48.07;99741.16;5052726;28;20198;-71
2023/06/13 02:55:22;;;;;;;6.03;4.70;;;;;;;24.89;48.30;99741.16;5051631;28;20191;-71
2023/06/13 02:57:48;;;;;;;5.93;4.70;;;;;;;24.88;48.22;99745.28;5033397;28;20266;-71
2023/06/13 03:00:15;;;;;;;7.43;5.50;;;;;;;24.87;47.74;99740.78;5033125;28;20172;-71
2023/06/13 03:02:40;;;;;;;8.30;4.50;;;;;;;24.87;48.27;99743.66;5026035;28;20172;-72
2023/06/13 03:05:08;;;;;;;5.50;4.00;;;;;;;24.87;48.14;99740.78;5053470;28;20461;-72
2023/06/13 03:07:33;;;;;;;6.23;4.80;;;;;;;24.87;48.09;99740.78;5049063;28;20187;-71
2023/06/13 03:10:00;;;;;;;5.40;3.93;;;;;;;24.87;48.40;99749.44;5047301;28;20502;-71
2023/06/13 03:12:26;;;;;;;6.00;4.70;;;;;;;24.86;48.44;99744.94;5052343;28;20577;-71
2023/06/13 03:14:51;;;;;;;4.87;4.17;;;;;;;24.86;47.88;99750.69;5065726;28;20499;-71
2023/06/13 03:17:17;;;;;;;6.30;5.07;;;;;;;24.85;48.32;99757.75;5068478;28;20603;-71
2023/06/13 03:19:43;;;;;;;6.40;4.93;;;;;;;24.84;47.98;99753.19;5064377;28;20572;-71
2023/06/13 03:22:13;;;;;;;5.30;4.30;;;;;;;24.85;47.98;99757.75;5035027;28;20418;-71
2023/06/13 03:24:40;;;;;;;6.47;4.90;;;;;;;24.85;48.05;99774.25;5052321;28;20155;-71
2023/06/13 03:27:06;;;;;;;6.50;4.80;;;;;;;24.83;48.11;99771.78;5067483;28;20433;-72
2023/06/13 03:29:31;;;;;;;6.13;4.70;;;;;;;24.83;48.12;99771.78;5052025;28;20427;-71
2023/06/13 03:31:57;;;;;;;6.30;4.50;;;;;;;24.83;48.23;99780.44;5045933;28;20438;-71
2023/06/13 03:34:25;;;;;;;7.30;4.77;;;;;;;24.83;47.99;99783.34;5064747;28;20210;-72
2023/06/13 03:36:51;;;;;;;6.60;4.27;;;;;;;24.83;48.07;99783.34;5067593;28;20201;-71
2023/06/13 03:39:16;;;;;;;7.60;4.40;;;;;;;24.83;48.42;99788.31;5050446;28;20444;-73
2023/06/13 03:41:42;;;;;;;6.57;4.70;;;;;;;24.82;47.95;99778.81;5068264;28;20183;-71
2023/06/13 03:44:07;;;;;;;6.97;4.60;;;;;;;24.82;47.88;99787.47;5035810;28;20638;-71
2023/06/13 03:46:32;;;;;;;5.50;4.33;;;;;;;24.82;48.00;99786.66;5051964;28;20178;-71
2023/06/13 03:48:58;;;;;;;5.80;4.20;;;;;;;24.82;48.18;99780.88;5047649;28;20199;-71
2023/06/13 03:51:23;;;;;;;6.30;4.70;;;;;;;24.81;47.82;99782.97;5031467;28;20186;-71
2023/06/13 03:53:49;;;;;;;5.90;4.60;;;;;;;24.81;48.06;99790.78;5058697;28;20202;-71
2023/06/13 03:56:14;;;;;;;6.27;5.00;;;;;;;24.81;48.10;99800.28;5035407;28;20183;-71
2023/06/13 03:58:40;;;;;;;9.67;5.10;;;;;;;24.80;48.09;99792.88;5068293;28;20619;-71
2023/06/13 04:01:06;;;;;;;6.60;5.10;;;;;;;24.79;47.89;99787.53;5034257;28;20182;-71
2023/06/13 04:03:31;;;;;;;5.83;4.43;;;;;;;24.79;48.10;99790.44;5066486;28;20171;-72
2023/06/13 04:05:57;;;;;;;5.77;4.00;;;;;;;24.79;47.95;99797.00;5034029;28;20483;-70
2023/06/13 04:08:22;;;;;;;6.50;4.63;;;;;;;24.79;48.02;99794.13;5048452;28;20213;-71
2023/06/13 04:10:48;;;;;;;6.40;4.50;;;;;;;24.79;48.10;99801.97;5065655;28;20194;-71
2023/06/13 04:13:13;;;;;;;5.77;4.43;;;;;;;24.78;48.00;99809.81;5032839;28;20234;-71
2023/06/13 04:15:39;;;;;;;7.07;4.97;;;;;;;24.78;48.08;99809.81;5030087;28;20211;-71
2023/06/13 04:18:04;;;;;;;6.07;4.27;;;;;;;24.78;48.13;99815.59;5022482;28;20236;-72
2023/06/13 04:20:30;;;;;;;10.30;5.43;;;;;;;24.77;48.38;99811.06;5010647;28;20213;-71
2023/06/13 04:22:55;;;;;;;8.70;4.20;;;;;;;24.77;48.02;99813.97;4994267;28;20177;-72
2023/06/13 04:25:21;;;;;;;6.97;5.40;;;;;;;24.77;48.21;99811.06;5018757;28;20184;-71
2023/06/13 04:27:48;;;;;;;6.83;4.40;;;;;;;24.77;48.08;99825.50;5026768;28;20183;-71
2023/06/13 04:30:14;;;;;;;5.57;4.47;;;;;;;24.76;48.11;99823.88;5026832;28;20419;-71
2023/06/13 04:32:43;;;;;;;7.43;4.77;;;;;;;24.77;48.28;99833.34;5015278;28;20430;-72
2023/06/13 04:35:16;;;;;;;7.33;4.63;;;;;;;24.77;48.20;99836.22;5046249;28;20970;-72
2023/06/13 04:37:43;;;;;;;6.00;4.40;;;;;;;24.78;48.17;99843.66;5043820;28;20446;-71
2023/06/13 04:40:10;;;;;;;6.30;5.00;;;;;;;24.81;48.31;99846.50;5046077;28;20433;-71
2023/06/13 04:42:37;;;;;;;5.77;4.20;;;;;;;24.82;48.57;99845.22;5042690;28;20445;-70
2023/06/13 04:45:04;;;;;;;6.10;4.37;;;;;;;24.83;48.49;99846.06;5027428;28;20419;-71
2023/06/13 04:47:30;;;;;;;6.80;5.27;;;;;;;24.84;48.85;99848.50;5011604;28;20557;-71
2023/06/13 04:49:59;;;;;;;8.30;4.63;;;;;;;24.84;49.34;99850.59;5025757;28;20470;-72
2023/06/13 04:52:32;;;;;;;6.97;4.77;;;;;;;24.84;48.92;99847.69;5031479;28;20439;-70
2023/06/13 04:55:02;;;;;;;6.00;4.50;;;;;;;24.83;49.82;99846.88;5031299;28;20438;-71
2023/06/13 04:57:28;;;;;;;8.07;4.80;;;;;;;24.81;49.38;99837.84;5047996;28;20414;-71
2023/06/13 04:59:55;;;;;;;5.80;4.87;;;;;;;24.81;50.00;99837.00;5045400;28;20423;-71
2023/06/13 05:02:20;;;;;;;6.20;4.60;;;;;;;24.81;50.32;99842.78;5033380;28;20529;-71
2023/06/13 05:04:48;;;;;;;5.93;4.70;;;;;;;24.82;50.36;99842.34;5034796;28;20756;-71
2023/06/13 05:07:15;;;;;;;6.33;4.57;;;;;;;24.84;49.74;99844.81;5020068;28;20180;-71
2023/06/13 05:09:42;;;;;;;6.07;4.37;;;;;;;24.85;49.90;99850.16;5036418;28;21003;-71
2023/06/13 05:12:07;;;;;;;5.10;3.73;;;;;;;24.87;50.24;99859.19;5034005;28;20945;-72
2023/06/13 05:14:33;;;;;;;7.90;4.93;;;;;;;24.88;49.86;99857.94;5020300;28;20470;-71
2023/06/13 05:17:01;;;;;;;6.27;4.73;;;;;;;24.89;50.28;99861.66;5014804;28;20176;-71
2023/06/13 05:19:26;;;;;;;7.00;4.50;;;;;;;24.91;50.26;99859.13;5034644;28;20203;-70
2023/06/13 05:21:52;;;;;;;7.87;4.70;;;;;;;24.91;49.57;99865.75;5031795;28;21048;-71
2023/06/13 05:24:18;;;;;;;7.00;4.20;;;;;;;24.92;50.02;99858.69;5032575;28;20227;-71
2023/06/13 05:26:44;;;;;;;5.03;4.03;;;;;;;24.94;49.16;99861.97;5034346;28;20287;-71
2023/06/13 05:29:10;;;;;;;6.80;4.27;;;;;;;24.95;49.03;99857.84;5034842;28;20902;-71
2023/06/13 05:31:35;;;;;;;6.17;4.87;;;;;;;24.95;48.68;99865.69;5066773;28;20441;-70
2023/06/13 05:34:01;;;;;;;6.33;4.30;;;;;;;24.93;48.74;99860.34;5048028;28;20210;-71
2023/06/13 05:36:27;;;;;;;7.33;4.50;;;;;;;24.91;49.10;99865.75;5040318;28;20195;-71
2023/06/13 05:38:54;;;;;;;7.30;4.77;;;;;;;24.91;49.12;99862.03;5072076;28;20179;-72
2023/06/13 05:41:19;;;;;;;8.73;4.30;;;;;;;24.84;49.02;99862.13;5037304;28;20549;-71
2023/06/13 05:43:45;;;;;;;5.30;4.13;;;;;;;24.80;48.02;99850.63;5036246;28;20422;-71
2023/06/13 05:46:10;;;;;;;5.83;4.70;;;;;;;24.80;49.01;99850.63;5033761;28;20245;-71
2023/06/13 05:48:36;;;;;;;6.50;4.57;;;;;;;24.83;48.29;99849.75;5052233;28;20175;-71
2023/06/13 05:51:03;;;;;;;6.50;4.60;;;;;;;24.87;48.49;99852.59;5034148;28;20184;-71
2023/06/13 05:53:30;;;;;;;9.83;4.70;;;;;;;24.87;48.72;99856.28;5050035;28;20200;-72
2023/06/13 05:55:55;;;;;;;6.13;4.40;;;;;;;24.88;48.13;99863.69;5034583;28;20417;-71
2023/06/13 05:58:21;;;;;;;10.23;4.90;;;;;;;24.89;48.33;99864.53;5049595;28;20426;-71
2023/06/13 06:00:46;;;;;;;6.30;4.30;;;;;;;24.89;48.25;99856.66;5017677;28;20286;-71
2023/06/13 06:03:12;;;;;;;4.93;4.10;;;;;;;24.90;48.91;99855.44;5050009;28;20179;-70
2023/06/13 06:05:37;;;;;;;6.67;4.77;;;;;;;24.93;48.58;99865.31;5033733;28;20191;-71
2023/06/13 06:08:03;;;;;;;6.23;4.50;;;;;;;24.95;49.55;99866.50;5050600;28;20184;-71
2023/06/13 06:10:28;;;;;;;6.43;4.50;;;;;;;24.97;49.35;99861.09;5034389;28;20176;-70
2023/06/13 06:12:53;;;;;;;6.10;4.47;;;;;;;24.99;49.16;99869.34;5031239;28;20235;-71
2023/06/13 06:15:19;;;;;;;6.90;4.53;;;;;;;25.00;48.85;99860.25;5019327;28;20269;-70
2023/06/13 06:17:44;;;;;;;6.50;4.63;;;;;;;24.98;48.43;99859.84;5053783;28;20612;-72
2023/06/13 06:20:10;;;;;;;9.10;4.40;;;;;;;24.96;48.57;99855.75;5052417;28;20198;-71
2023/06/13 06:22:36;;;;;;;6.30;4.63;;;;;;;24.94;48.57;99861.16;5033942;28;20547;-71
2023/06/13 06:25:01;;;;;;;5.40;4.50;;;;;;;24.92;48.74;99855.81;5019899;28;20183;-70
2023/06/13 06:27:27;;;;;;;8.17;3.83;;;;;;;24.90;48.36;99855.44;5049931;28;20190;-71
2023/06/13 06:29:52;;;;;;;7.40;4.30;;;;;;;24.88;48.88;99852.16;5031690;28;20184;-71
2023/06/13 06:32:18;;;;;;;7.23;4.80;;;;;;;24.87;48.80;99841.84;4997435;28;20863;-71
2023/06/13 06:34:43;;;;;;;6.20;4.47;;;;;;;24.86;48.53;99846.00;5041333;28;20207;-71
2023/06/13 06:37:09;;;;;;;8.17;4.60;;;;;;;24.86;48.63;99837.34;5000652;28;21045;-71
2023/06/13 06:39:34;;;;;;;7.50;4.90;;;;;;;24.85;49.34;99827.06;5030621;28;20180;-71
2023/06/13 06:42:00;;;;;;;6.87;4.60;;;;;;;24.86;49.11;99831.56;5047952;28;20191;-71
2023/06/13 06:44:25;;;;;;;6.13;4.37;;;;;;;24.85;49.10;99826.22;5029951;28;20180;-71
2023/06/13 06:46:51;;;;;;;7.63;3.70;;;;;;;24.82;49.47;99833.69;5025028;28;20193;-70
2023/06/13 06:49:16;;;;;;;6.93;4.50;;;;;;;24.81;49.53;99829.16;5031712;28;20199;-71
2023/06/13 06:51:42;;;;;;;6.23;4.40;;;;;;;24.83;49.72;99828.75;5028226;28;20188;-70
2023/06/13 06:54:07;;;;;;;5.97;4.00;;;;;;;24.84;49.39;99831.16;5012806;28;20212;-71
2023/06/13 06:56:33;;;;;;;6.77;4.30;;;;;;;24.83;49.44;99826.66;4996672;28;20192;-70
2023/06/13 06:58:58;;;;;;;7.10;4.70;;;;;;;24.84;49.30;99836.94;5018630;28;20631;-72
2023/06/13 07:01:23;;;;;;;6.83;3.87;;;;;;;24.84;48.88;99831.16;5031944;28;20199;-71
2023/06/13 07:03:49;;;;;;;6.67;4.77;;;;;;;24.85;49.42;99835.72;5029647;28;20177;-71
2023/06/13 07:06:15;;;;;;;5.77;4.00;;;;;;;24.84;49.09;99831.16;5018959;28;20196;-70
2023/06/13 07:08:40;;;;;;;5.10;3.90;;;;;;;24.85;49.00;99829.94;5040001;28;20293;-71
2023/06/13 07:11:06;;;;;;;6.27;4.30;;;;;;;24.83;48.76;99829.53;5031075;28;20168;-71
2023/06/13 07:13:32;;;;;;;5.83;3.90;;;;;;;24.83;48.96;99822.97;5042121;28;20665;-70
2023/06/13 07:15:57;;;;;;;7.80;4.00;;;;;;;24.84;48.67;99827.47;5039847;28;20214;-71
2023/06/13 07:18:22;;;;;;;5.60;3.93;;;;;;;24.83;48.65;99822.97;5072354;28;20424;-70
2023/06/13 07:20:48;;;;;;;5.90;4.50;;;;;;;24.81;48.37;99826.28;5057798;28;20190;-70
2023/06/13 07:23:13;;;;;;;4.70;3.60;;;;;;;24.80;48.27;99821.75;5072771;28;20169;-71
2023/06/13 07:25:42;;;;;;;8.73;4.27;;;;;;;24.79;48.44;99823.00;5027119;28;20178;-71
2023/06/13 07:28:08;;;;;;;5.60;4.30;;;;;;;24.80;48.32;99823.81;5061181;28;20292;-70
2023/06/13 07:30:33;;;;;;;7.13;4.27;;;;;;;24.80;48.27;99823.81;5055432;28;20462;-71
2023/06/13 07:32:59;;;;;;;6.33;4.47;;;;;;;24.78;48.07;99817.69;5075309;28;20529;-70
2023/06/13 07:35:24;;;;;;;7.20;3.80;;;;;;;24.79;48.50;99823.00;5072080;28;20231;-70
2023/06/13 07:37:50;;;;;;;5.43;3.90;;;;;;;24.77;48.08;99819.72;5056404;28;20189;-71
2023/06/13 07:40:16;;;;;;;5.40;3.80;;;;;;;24.77;48.30;99813.97;5052015;28;20183;-70
2023/06/13 07:42:42;;;;;;;6.20;4.03;;;;;;;24.77;48.00;99816.84;5040334;28;20249;-72
2023/06/13 07:45:07;;;;;;;5.40;3.70;;;;;;;24.77;48.36;99813.13;5071137;28;20458;-70
2023/06/13 07:47:34;;;;;;;5.10;3.87;;;;;;;24.76;48.01;99811.50;5054706;28;20190;-70
2023/06/13 07:50:00;;;;;;;4.80;3.80;;;;;;;24.74;48.15;99809.03;5042420;28;20359;-71
2023/06/13 07:52:25;;;;;;;5.50;3.47;;;;;;;24.75;47.79;99809.88;5054758;28;20429;-70
2023/06/13 07:54:51;;;;;;;5.10;3.23;;;;;;;24.74;47.71;99800.38;5073574;28;20217;-70
2023/06/13 07:57:16;;;;;;;5.60;3.53;;;;;;;24.72;47.53;99799.19;5052392;28;20187;-71
2023/06/13 07:59:42;;;;;;;5.77;3.80;;;;;;;24.71;47.48;99797.56;5059520;28;20459;-72
2023/06/13 08:02:07;;;;;;;7.23;3.90;;;;;;;24.71;47.62;99804.16;5056207;28;20191;-70
2023/06/13 08:04:33;;;;;;;5.40;3.70;;;;;;;24.72;47.49;99807.84;5045097;28;20185;-71
2023/06/13 08:06:59;;;;;;;5.33;4.00;;;;;;;24.70;47.24;99795.91;5043999;28;20193;-71
2023/06/13 08:09:24;;;;;;;5.03;3.53;;;;;;;24.70;47.28;99795.91;5071361;28;20177;-72
2023/06/13 08:11:50;;;;;;;5.23;3.90;;;;;;;24.70;46.58;99795.91;5050166;28;20461;-70
2023/06/13 08:14:15;;;;;;;4.90;3.80;;;;;;;24.70;46.94;99799.63;5071743;28;20210;-70
2023/06/13 08:16:40;;;;;;;5.23;3.60;;;;;;;24.71;46.84;99795.50;5069424;28;20204;-71
2023/06/13 08:19:06;;;;;;;6.20;3.70;;;;;;;24.69;46.74;99795.09;5043611;28;20183;-70
2023/06/13 08:21:32;;;;;;;6.40;3.77;;;;;;;24.70;46.93;99796.75;5084311;28;20227;-71
2023/06/13 08:23:59;;;;;;;7.50;3.83;;;;;;;24.70;46.81;99795.91;5078411;28;20537;-70
2023/06/13 08:26:25;;;;;;;4.70;3.80;;;;;;;24.70;47.14;99790.97;5089330;28;20185;-71
2023/06/13 08:28:51;;;;;;;5.70;3.73;;;;;;;24.69;46.94;99789.31;5071605;28;20884;-70
2023/06/13 08:31:23;;;;;;;5.30;3.77;;;;;;;24.70;46.99;99790.97;5090774;28;20483;-70
2023/06/13 08:33:51;;;;;;;4.33;3.40;;;;;;;24.69;46.87;99788.53;5080941;28;20477;-71
2023/06/13 08:36:17;;;;;;;4.60;3.57;;;;;;;24.69;46.72;99785.63;5063445;28;20424;-71
2023/06/13 08:38:42;;;;;;;4.60;3.43;;;;;;;24.69;46.39;99786.44;5070363;28;20440;-71
2023/06/13 08:41:08;;;;;;;6.43;3.40;;;;;;;24.68;46.80;99779.03;5062268;28;20223;-70
2023/06/13 08:43:34;;;;;;;7.40;4.10;;;;;;;24.68;46.97;99781.13;5046401;28;20186;-71
2023/06/13 08:46:00;;;;;;;4.47;3.47;;;;;;;24.68;46.67;99773.25;5066374;28;20186;-72
2023/06/13 08:48:25;;;;;;;5.57;3.43;;;;;;;24.69;46.48;99779.84;5060223;28;20633;-71
2023/06/13 08:50:51;;;;;;;4.57;3.47;;;;;;;24.68;46.88;99781.91;5060460;28;20186;-71
2023/06/13 08:53:17;;;;;;;5.57;3.60;;;;;;;24.68;46.80;99776.13;5069763;28;20250;-72
2023/06/13 08:55:42;;;;;;;6.00;3.43;;;;;;;24.68;46.29;99773.25;5055669;28;20235;-70
2023/06/13 08:58:09;;;;;;;6.00;3.30;;;;;;;24.68;46.75;99773.25;5036456;28;20951;-70
2023/06/13 09:00:35;;;;;;;5.00;3.67;;;;;;;24.68;47.55;99778.22;5083186;28;20622;-70
2023/06/13 09:03:03;;;;;;;7.80;3.00;;;;;;;24.68;46.69;99770.38;5051972;28;20429;-70
2023/06/13 09:05:29;;;;;;;9.10;3.03;;;;;;;24.67;46.37;99762.97;5058796;28;20185;-70
2023/06/13 09:07:54;;;;;;;4.73;3.00;;;;;;;24.68;46.67;99769.56;5062835;28;20926;-70
2023/06/13 09:10:20;;;;;;;6.10;4.73;;;;;;;24.68;46.36;99764.59;5062070;28;20182;-71
2023/06/13 09:12:46;;;;;;;4.33;3.03;;;;;;;24.68;46.20;99770.38;5079244;28;20639;-71
2023/06/13 09:15:11;;;;;;;4.73;3.43;;;;;;;24.68;46.28;99773.25;5060855;28;20243;-70
2023/06/13 09:17:37;;;;;;;5.20;3.57;;;;;;;24.68;46.11;99769.56;5057810;28;20460;-70
2023/06/13 09:20:06;;;;;;;4.03;3.20;;;;;;;24.65;45.77;99762.59;5060217;28;20422;-70
2023/06/13 09:22:32;;;;;;;5.50;3.03;;;;;;;24.67;46.31;99768.75;5046803;28;20648;-71
2023/06/13 09:24:58;;;;;;;4.67;3.50;;;;;;;24.67;45.75;99762.97;5064598;28;20923;-70
2023/06/13 09:27:23;;;;;;;5.80;3.90;;;;;;;24.67;46.31;99760.06;5081489;28;20423;-70
2023/06/13 09:29:49;;;;;;;4.70;3.13;;;;;;;24.68;46.35;99772.44;5064592;28;20177;-72
2023/06/13 09:32:15;;;;;;;4.67;2.97;;;;;;;24.67;46.02;99762.97;5060756;28;20629;-70
2023/06/13 09:34:41;;;;;;;3.93;2.80;;;;;;;24.67;45.91;99773.69;5047299;28;20456;-70
2023/06/13 09:37:10;;;;;;;6.23;4.10;;;;;;;24.66;45.85;99769.16;5062649;28;20194;-70
2023/06/13 09:39:50;;;;;;;5.17;3.37;;;;;;;24.68;45.89;99769.56;5048012;28;20428;-70
2023/06/13 09:42:22;;;;;;;5.00;3.63;;;;;;;24.67;45.84;99762.13;5035495;28;20427;-70
2023/06/13 09:44:50;;;;;;;5.70;3.07;;;;;;;24.67;45.47;99765.03;5076067;28;20435;-70
2023/06/13 09:47:20;;;;;;;5.33;3.43;;;;;;;24.68;45.56;99761.72;5060870;28;20448;-70
2023/06/13 09:49:45;;;;;;;5.87;3.70;;;;;;;24.67;44.96;99762.97;5066895;28;20423;-72
2023/06/13 09:52:11;;;;;;;4.97;3.13;;;;;;;24.68;45.01;99761.72;5104448;28;20785;-71
2023/06/13 09:54:37;;;;;;;4.70;3.30;;;;;;;24.68;44.98;99755.13;5083245;28;20312;-70
2023/06/13 09:57:03;;;;;;;6.50;3.60;;;;;;;24.69;44.93;99759.66;5083997;28;20190;-70
2023/06/13 09:59:29;;;;;;;3.90;3.20;;;;;;;24.68;44.90;99753.03;5060386;28;20431;-71
2023/06/13 10:01:54;;;;;;;5.13;3.10;;;;;;;24.69;45.21;99756.75;5084125;28;20185;-70
2023/06/13 10:04:21;;;;;;;4.40;2.87;;;;;;;24.68;44.94;99744.38;5081902;28;20247;-71
2023/06/13 10:06:46;;;;;;;4.43;3.10;;;;;;;24.67;44.46;99748.53;5077585;28;20232;-71
2023/06/13 10:09:12;;;;;;;4.43;2.87;;;;;;;24.68;45.02;99744.38;5034897;28;21140;-70
2023/06/13 10:11:38;;;;;;;4.07;3.00;;;;;;;24.68;44.48;99747.28;5078013;28;20738;-71
2023/06/13 10:14:07;;;;;;;4.73;3.00;;;;;;;24.68;43.15;99744.38;5060720;28;20575;-70
2023/06/13 10:16:38;;;;;;;7.00;3.70;;;;;;;24.68;43.80;99747.28;5061556;28;20486;-70
2023/06/13 10:19:05;;;;;;;6.93;3.00;;;;;;;24.68;43.30;99744.38;5064050;28;21237;-71
2023/06/13 10:21:30;;;;;;;5.20;2.80;;;;;;;24.68;42.72;99750.16;5061646;28;20504;-72
2023/06/13 10:23:56;;;;;;;5.53;3.23;;;;;;;24.69;43.37;99737.34;5039534;28;20938;-71
2023/06/13 10:26:30;;;;;;;4.07;3.10;;;;;;;24.69;43.24;99731.56;5040321;28;20189;-71
2023/06/13 10:29:14;;;;;;;8.37;3.20;;;;;;;24.70;42.04;99733.22;5063412;28;20225;-70
2023/06/13 10:31:54;;;;;;;5.50;3.23;;;;;;;24.71;41.99;99739.81;5059705;28;20947;-70
2023/06/13 10:34:34;;;;;;;9.37;3.47;;;;;;;24.73;41.39;99735.22;5097062;28;20468;-70
2023/06/13 10:37:22;;;;;;;8.97;3.37;;;;;;;24.74;41.34;99744.72;5096346;28;20416;-70
2023/06/13 10:40:08;;;;;;;5.07;3.10;;;;;;;24.72;41.38;99733.59;5101811;28;20427;-70
2023/06/13 10:42:40;;;;;;;6.50;3.33;;;;;;;24.74;41.77;99742.63;5062753;28;20503;-71
2023/06/13 10:45:11;;;;;;;4.67;3.13;;;;;;;24.74;41.21;99739.75;5038041;28;20481;-70
2023/06/13 10:47:37;;;;;;;7.07;3.13;;;;;;;24.74;41.22;99739.75;5053985;28;20500;-71
2023/06/13 10:50:02;;;;;;;8.43;2.90;;;;;;;24.76;41.68;99739.31;5063412;28;20435;-70
2023/06/13 10:52:28;;;;;;;7.80;3.00;;;;;;;24.75;41.37;99734.81;5067255;28;20182;-70
2023/06/13 10:54:55;;;;;;;5.80;3.37;;;;;;;24.75;41.33;99734.81;5039580;28;20602;-71
2023/06/13 10:57:21;;;;;;;6.03;3.50;;;;;;;24.73;41.35;99732.34;5061282;28;20416;-70
2023/06/13 10:59:48;;;;;;;10.30;3.30;;;;;;;24.76;41.26;99737.25;5065061;28;20940;-70
2023/06/13 11:02:14;;;;;;;5.50;3.30;;;;;;;24.76;41.69;99733.53;5061431;28;20189;-70
2023/06/13 11:04:40;;;;;;;8.03;3.20;;;;;;;24.76;41.08;99719.09;5080113;28;20428;-70
2023/06/13 11:07:36;;;;;;;5.90;3.93;;;;;;;24.76;41.27;99719.94;5064177;28;20428;-70
2023/06/13 11:10:14;;;;;;;6.43;3.20;;;;;;;24.76;41.07;99719.09;5066488;28;20440;-72
2023/06/13 11:12:43;;;;;;;7.23;3.40;;;;;;;24.77;40.79;99714.94;5077009;28;20528;-70
2023/06/13 11:15:25;;;;;;;3.97;2.90;;;;;;;24.77;41.13;99712.06;5058743;28;20477;-70
2023/06/13 11:18:14;;;;;;;5.37;3.10;;;;;;;24.78;40.92;99728.97;5076143;28;20416;-70
2023/06/13 11:20:56;;;;;;;7.57;3.97;;;;;;;24.78;40.64;99710.84;5090029;28;20931;-70
2023/06/13 11:23:22;;;;;;;4.70;3.10;;;;;;;24.77;41.06;99718.66;5080862;28;20527;-71
2023/06/13 11:25:48;;;;;;;7.17;3.70;;;;;;;24.78;41.00;99719.50;5066520;28;20451;-70
2023/06/13 11:28:14;;;;;;;6.80;3.50;;;;;;;24.78;41.00;99700.09;5063547;28;20459;-70
2023/06/13 11:30:44;;;;;;;5.87;3.43;;;;;;;24.76;41.16;99696.84;5047321;28;20418;-70
2023/06/13 11:33:11;;;;;;;6.03;3.30;;;;;;;24.77;41.27;99692.69;5065214;28;20292;-71
2023/06/13 11:35:37;;;;;;;9.37;3.17;;;;;;;24.78;41.08;99710.84;5043670;28;20429;-70